ENAN/ANX METAR and TAF weather

Enter ICAO airport designator
Station Type Date Time Source
ENAN METAR 2019/02/23 03:20 UTC NOAA

ENAN 230320Z AUTO 26030G48KT 2700 BR BKN003/// OVC005/// 07/05 Q1009


Station Type Date Time Source
ENAN Decoded METAR 2019/02/23 03:20 UTC NOAA

Andoya, Norway (ENAN) 69-18N 016-09E 14M
Feb 22, 2019 - 10:20 PM EST / 2019.02.23 0320 UTC
Wind: from the W (260 degrees) at 35 MPH (30 KT) gusting to 55 MPH (48 KT):0
Visibility: 1 mile(s):0
Sky conditions: overcast
Weather: mist
Temperature: 44 F (7 C)
Dew Point: 41 F (5 C)
Relative Humidity: 87%
Pressure (altimeter): 29.80 in. Hg (1009 hPa)
ob: ENAN 230320Z AUTO 26030G48KT 2700 BR BKN003/// OVC005/// 07/05 Q1009
cycle: 3

Station Type Date Time Source
ENAN TAF 2019/02/22 22:27 UTC NOAA

TAF
AMD ENAN 222222Z 2222/2318 24020KT 6000 -DZ BKN012
TEMPO 2222/2318 25025G40KT 2000 DZRA BR OVC004
BECMG 2304/2307 BKN020


Example: see airport list